MSC Davos — A8IG3 — position and weather

sailwx.info

Track history (hours):
 
Tides and Currents Weather Stations Pressure Air Temp Water Temp Dewpoint Dewpoint Depression Visibility Wind Speed Wind Dir Waves Ship Positions

MSC Davos

Last reported at 2016-Apr-20 22:33 UTC. Time now 2016-May-01 15:29 UTC.
Position N 02°01' E 102°12'.
Warning: this ship's position is 10 days out of date.

Length 210.9 m; beam 32.3 m; draft 12 m.

Type: Ship (hazmat cat A). MMSI: 636090972.

Date/timePositionNaut miles runAvg speedWind from/ knotsBaromVisibWave heightAir tempDewpointWater temp
2016-Apr-20 22:33N 02°01' E 102°12'1110.9
2016-Apr-20 21:32N 01°55' E 102°21'1212.0
2016-Apr-20 20:32N 01°50' E 102°32'1312.8
2016-Apr-20 19:34N 01°45' E 102°43'1513.1
2016-Apr-20 18:27N 01°39' E 102°56'2712.3
2016-Apr-20 16:14N 01°22' E 103°17'911.2
2016-Apr-20 15:23N 01°15' E 103°24'11 2.7
2016-Apr-20 11:26N 01°22' E 103°33'2 0.1
2016-Apr-19 08:33N 01°20' E 103°33'7 6.5
2016-Apr-19 07:31N 01°14' E 103°30'0 0.1
2016-Apr-19 04:26N 01°14' E 103°30'0 0.1
2016-Apr-19 03:32N 01°14' E 103°30'0 0.0
2016-Apr-19 02:26N 01°14' E 103°30'0 0.1
2016-Apr-19 01:32N 01°14' E 103°30'0 0.1
2016-Apr-19 00:32N 01°14' E 103°30'0 0.0
2016-Apr-18 18:29N 01°14' E 103°30'0 0.0
2016-Apr-18 16:17N 01°14' E 103°30'0 0.0
2016-Apr-18 15:11N 01°14' E 103°30'0 0.1
2016-Apr-18 13:27N 01°14' E 103°30'5 5.6
2016-Apr-18 12:33N 01°12' E 103°35'8 8.5
2016-Apr-18 11:33N 01°15' E 103°43'4 3.4
2016-Apr-18 10:22N 01°16' E 103°47'0 0.0
2016-Apr-18 09:16N 01°16' E 103°47'0 0.0
2016-Apr-18 08:31N 01°16' E 103°47'0 0.0
2016-Apr-18 07:25N 01°16' E 103°47'0 0.0
2016-Apr-18 06:25N 01°16' E 103°47'0 0.0
2016-Apr-18 05:25N 01°16' E 103°47'0 0.0
2016-Apr-18 04:16N 01°16' E 103°47'0 0.0
2016-Apr-18 03:25N 01°16' E 103°47'0 0.0
2016-Apr-18 02:28N 01°16' E 103°47'0 0.0
2016-Apr-18 01:31N 01°16' E 103°47'0 0.0
2016-Apr-18 00:31N 01°16' E 103°47'0 0.0
2016-Apr-17 23:33N 01°16' E 103°47'7 6.7
2016-Apr-17 22:33N 01°13' E 103°53'8 7.9
2016-Apr-17 21:33N 01°16' E 104°01'1110.4
2016-Apr-17 20:32N 01°17' E 104°11'  
2016-Apr-11 18:31N 29°16' E 122°55'1414.0
2016-Apr-11 17:32N 29°28' E 123°03'2813.6
2016-Apr-11 15:30N 29°56' E 123°04'2412.2
2016-Apr-11 13:33N 30°18' E 122°56'1312.7
2016-Apr-11 12:33N 30°20' E 122°41'1615.6
2016-Apr-11 11:32N 30°22' E 122°23'2218.6
2016-Apr-11 10:22N 30°23' E 121°58'911.6
2016-Apr-11 09:33N 30°19' E 121°48'1211.8
2016-Apr-11 08:33N 30°14' E 122°00'  
Track history (hours):
 
Tides and Currents Weather Stations Pressure Air Temp Water Temp Dewpoint Dewpoint Depression Visibility Wind Speed Wind Dir Waves Ship Positions

MSC Davos

Last reported at 2016-Apr-20 22:33 UTC. Time now 2016-May-01 15:29 UTC.
Position N 02°01' E 102°12'.
Warning: this ship's position is 10 days out of date.

Length 210.9 m; beam 32.3 m; draft 12 m.

Type: Ship (hazmat cat A). MMSI: 636090972.

Date/timePositionNaut miles runAvg speedWind from/ knotsBaromVisibWave heightAir tempDewpointWater temp
2016-Apr-20 22:33N 02°01' E 102°12'1110.9
2016-Apr-20 21:32N 01°55' E 102°21'1212.0
2016-Apr-20 20:32N 01°50' E 102°32'1312.8
2016-Apr-20 19:34N 01°45' E 102°43'1513.1
2016-Apr-20 18:27N 01°39' E 102°56'2712.3
2016-Apr-20 16:14N 01°22' E 103°17'911.2
2016-Apr-20 15:23N 01°15' E 103°24'11 2.7
2016-Apr-20 11:26N 01°22' E 103°33'2 0.1
2016-Apr-19 08:33N 01°20' E 103°33'7 6.5
2016-Apr-19 07:31N 01°14' E 103°30'0 0.1
2016-Apr-19 04:26N 01°14' E 103°30'0 0.1
2016-Apr-19 03:32N 01°14' E 103°30'0 0.0
2016-Apr-19 02:26N 01°14' E 103°30'0 0.1
2016-Apr-19 01:32N 01°14' E 103°30'0 0.1
2016-Apr-19 00:32N 01°14' E 103°30'0 0.0
2016-Apr-18 18:29N 01°14' E 103°30'0 0.0
2016-Apr-18 16:17N 01°14' E 103°30'0 0.0
2016-Apr-18 15:11N 01°14' E 103°30'0 0.1
2016-Apr-18 13:27N 01°14' E 103°30'5 5.6
2016-Apr-18 12:33N 01°12' E 103°35'8 8.5
2016-Apr-18 11:33N 01°15' E 103°43'4 3.4
2016-Apr-18 10:22N 01°16' E 103°47'0 0.0
2016-Apr-18 09:16N 01°16' E 103°47'0 0.0
2016-Apr-18 08:31N 01°16' E 103°47'0 0.0
2016-Apr-18 07:25N 01°16' E 103°47'0 0.0
2016-Apr-18 06:25N 01°16' E 103°47'0 0.0
2016-Apr-18 05:25N 01°16' E 103°47'0 0.0
2016-Apr-18 04:16N 01°16' E 103°47'0 0.0
2016-Apr-18 03:25N 01°16' E 103°47'0 0.0
2016-Apr-18 02:28N 01°16' E 103°47'0 0.0
2016-Apr-18 01:31N 01°16' E 103°47'0 0.0
2016-Apr-18 00:31N 01°16' E 103°47'0 0.0
2016-Apr-17 23:33N 01°16' E 103°47'7 6.7
2016-Apr-17 22:33N 01°13' E 103°53'8 7.9
2016-Apr-17 21:33N 01°16' E 104°01'1110.4
2016-Apr-17 20:32N 01°17' E 104°11'  
2016-Apr-11 18:31N 29°16' E 122°55'1414.0
2016-Apr-11 17:32N 29°28' E 123°03'2813.6
2016-Apr-11 15:30N 29°56' E 123°04'2412.2
2016-Apr-11 13:33N 30°18' E 122°56'1312.7
2016-Apr-11 12:33N 30°20' E 122°41'1615.6
2016-Apr-11 11:32N 30°22' E 122°23'2218.6
2016-Apr-11 10:22N 30°23' E 121°58'911.6
2016-Apr-11 09:33N 30°19' E 121°48'1211.8
2016-Apr-11 08:33N 30°14' E 122°00'  

Dump ship's entire track history